createdAt,value
2022-11-01T00:04:45.060Z,97195.63
2022-11-01T00:09:50.084Z,97200.53
2022-11-01T00:14:53.636Z,97191.47
2022-11-01T00:19:57.029Z,97198.84
2022-11-01T00:25:01.728Z,97198.69
2022-11-01T00:30:06.232Z,97186.38
2022-11-01T00:35:09.964Z,97190.06
2022-11-01T00:40:15.044Z,97201.41
2022-11-01T00:45:18.962Z,97199.22
2022-11-01T00:50:22.605Z,97208.47
2022-11-01T00:55:27.527Z,97220.75
2022-11-01T01:00:31.306Z,97234.03
2022-11-01T01:05:35.238Z,97220.75
2022-11-01T01:10:40.028Z,97213.63
2022-11-01T01:15:43.927Z,97227.44
2022-11-01T01:20:47.241Z,97215.16
2022-11-01T01:25:51.886Z,97215.88
2022-11-01T01:30:55.282Z,97216.13
2022-11-01T01:36:01.379Z,97211.09
2022-11-01T01:41:26.187Z,97202.16
2022-11-01T01:46:29.484Z,97206.50
2022-11-01T01:51:32.832Z,97204.13
2022-11-01T01:56:38.650Z,97199.41
2022-11-01T02:01:42.391Z,97207.34
2022-11-01T02:06:47.066Z,97209.69
2022-11-01T02:11:52.044Z,97195.06
2022-11-01T02:17:05.581Z,97195.78
2022-11-01T02:22:18.043Z,97195.03
2022-11-01T02:27:25.870Z,97191.44
2022-11-01T02:32:38.561Z,97188.47
2022-11-01T02:37:50.214Z,97191.28
2022-11-01T02:43:01.321Z,97179.28
2022-11-01T02:48:07.745Z,97180.38
2022-11-01T02:53:11.844Z,97190.28
2022-11-01T02:58:21.531Z,97187.09
2022-11-01T03:03:29.168Z,97179.41
2022-11-01T03:08:36.669Z,97183.47
2022-11-01T03:13:53.939Z,97185.53
2022-11-01T03:19:08.566Z,97176.47
2022-11-01T03:24:21.710Z,97176.63
2022-11-01T03:29:29.153Z,97187.34
2022-11-01T03:34:36.945Z,97187.78
2022-11-01T03:39:44.619Z,97192.66
2022-11-01T03:44:50.865Z,97190.44
2022-11-01T03:50:13.843Z,97189.63
2022-11-01T03:55:19.057Z,97190.72
2022-11-01T04:00:24.542Z,97192.00
2022-11-01T04:05:30.856Z,97194.94
2022-11-01T04:10:34.888Z,97193.81
2022-11-01T04:15:55.608Z,97194.22
2022-11-01T04:21:03.554Z,97199.91
2022-11-01T04:26:08.338Z,97208.69
2022-11-01T04:31:12.320Z,97203.19
2022-11-01T04:36:17.222Z,97191.38
2022-11-01T04:41:22.508Z,97182.16
2022-11-01T04:46:27.921Z,97178.56
2022-11-01T04:51:33.035Z,97172.91
2022-11-01T04:56:36.503Z,97196.47
2022-11-01T05:01:40.270Z,97220.50
2022-11-01T05:06:45.055Z,97220.97
2022-11-01T05:11:48.777Z,97213.06
2022-11-01T05:16:52.152Z,97225.69
2022-11-01T05:21:58.067Z,97267.03
2022-11-01T05:27:02.054Z,97264.25
2022-11-01T05:32:06.296Z,97266.13
2022-11-01T05:37:12.068Z,97257.81
2022-11-01T05:42:15.882Z,97247.72
2022-11-01T05:47:19.281Z,97294.00
2022-11-01T05:52:24.122Z,97291.94
2022-11-01T05:57:33.150Z,97308.84
2022-11-01T06:02:36.934Z,97302.03
2022-11-01T06:07:41.742Z,97314.72
2022-11-01T06:12:45.197Z,97298.19
2022-11-01T06:17:48.748Z,97308.66
2022-11-01T06:22:53.997Z,97322.00
2022-11-01T06:27:57.497Z,97330.09
2022-11-01T06:33:02.155Z,97282.28
2022-11-01T06:38:08.356Z,97305.41
2022-11-01T06:43:11.888Z,97337.09
2022-11-01T06:48:16.470Z,97358.03
2022-11-01T06:53:21.289Z,97329.31
2022-11-01T06:58:24.690Z,97333.19
2022-11-01T07:03:28.149Z,97339.06
2022-11-01T07:08:33.033Z,97338.69
2022-11-01T07:13:37.904Z,97359.72
2022-11-01T07:18:41.333Z,97354.09
2022-11-01T07:23:46.272Z,97365.69
2022-11-01T07:28:49.836Z,97377.19
2022-11-01T07:33:53.225Z,97373.28
2022-11-01T07:38:58.049Z,97377.13
2022-11-01T07:44:01.493Z,97382.19
2022-11-01T07:49:04.929Z,97379.53
2022-11-01T07:54:09.702Z,97390.59
2022-11-01T07:59:13.357Z,97390.63
2022-11-01T08:04:16.742Z,97389.50
2022-11-01T08:09:23.199Z,97395.69
2022-11-01T08:14:26.972Z,97395.56
2022-11-01T08:19:30.457Z,97401.88
2022-11-01T08:24:35.215Z,97405.91
2022-11-01T08:29:38.662Z,97406.63
2022-11-01T08:34:42.072Z,97405.94
2022-11-01T08:39:46.930Z,97415.09
2022-11-01T08:44:50.443Z,97435.38
2022-11-01T08:49:53.976Z,97441.38
2022-11-01T08:54:58.774Z,97442.63
2022-11-01T09:00:02.391Z,97436.22
2022-11-01T09:05:07.084Z,97445.13
2022-11-01T09:10:12.621Z,97465.00
2022-11-01T09:15:16.013Z,97458.97
2022-11-01T09:20:19.851Z,97458.63
2022-11-01T09:25:24.866Z,97472.19
2022-11-01T09:30:28.781Z,97464.72
2022-11-01T09:35:32.264Z,97458.38
2022-11-01T09:40:45.330Z,97454.34
2022-11-01T09:45:51.003Z,97470.47
2022-11-01T09:50:55.054Z,97468.16
2022-11-01T09:56:10.155Z,97454.13
2022-11-01T10:01:26.860Z,97468.66
2022-11-01T10:06:39.104Z,97464.13
2022-11-01T10:12:00.379Z,97460.22
2022-11-01T10:17:14.534Z,97461.78
2022-11-01T10:22:19.628Z,97450.91
2022-11-01T10:27:33.055Z,97450.00
2022-11-01T10:32:44.070Z,97455.69
2022-11-01T10:38:04.024Z,97446.34
2022-11-01T10:43:19.932Z,97453.41
2022-11-01T10:48:31.993Z,97446.56
2022-11-01T10:53:42.039Z,97447.91
2022-11-01T10:58:54.666Z,97439.47
2022-11-01T11:04:01.424Z,97448.03
2022-11-01T11:09:06.300Z,97451.03
2022-11-01T11:14:14.074Z,97462.09
2022-11-01T11:19:25.232Z,97458.97
2022-11-01T11:24:33.769Z,97462.50
2022-11-01T11:29:41.184Z,97460.97
2022-11-01T11:34:44.963Z,97476.66
2022-11-01T11:40:02.513Z,97470.44
2022-11-01T11:45:18.182Z,97470.06
2022-11-01T11:50:32.899Z,97481.59
2022-11-01T11:55:42.239Z,97503.56
2022-11-01T12:00:50.069Z,97490.69
2022-11-01T12:06:00.830Z,97504.88
2022-11-01T12:11:05.762Z,97514.78
2022-11-01T12:16:17.755Z,97516.63
2022-11-01T12:21:25.403Z,97522.00
2022-11-01T12:26:31.786Z,97512.19
2022-11-01T12:31:39.337Z,97517.13
2022-11-01T12:36:47.072Z,97521.09
2022-11-01T12:41:59.350Z,97502.16
2022-11-01T12:47:11.814Z,97495.59
2022-11-01T12:52:22.439Z,97517.94
2022-11-01T12:57:26.093Z,97512.41
2022-11-01T13:02:52.532Z,97519.25
2022-11-01T13:08:05.490Z,97526.03
2022-11-01T13:13:17.944Z,97511.06
2022-11-01T13:18:34.335Z,97501.84
2022-11-01T13:23:39.481Z,97512.78
2022-11-01T13:28:55.202Z,97504.44
2022-11-01T13:34:11.091Z,97515.63
2022-11-01T13:39:24.716Z,97518.78
2022-11-01T13:44:33.867Z,97506.78
2022-11-01T13:50:04.967Z,97506.13
2022-11-01T13:55:20.218Z,97514.00
2022-11-01T14:00:40.148Z,97525.88
2022-11-01T14:05:46.400Z,97524.72
2022-11-01T14:10:51.476Z,97516.19
2022-11-01T14:16:20.933Z,97511.31
2022-11-01T14:21:32.197Z,97509.31
2022-11-01T14:26:46.279Z,97517.16
2022-11-01T14:31:53.728Z,97519.31
2022-11-01T14:37:04.420Z,97525.34
2022-11-01T14:42:15.111Z,97525.09
2022-11-01T14:47:29.161Z,97530.13
2022-11-01T14:52:40.983Z,97523.34
2022-11-01T14:57:45.355Z,97529.19
2022-11-01T15:02:48.855Z,97523.53
2022-11-01T15:07:56.251Z,97538.09
2022-11-01T15:13:01.742Z,97537.44
2022-11-01T15:18:09.226Z,97549.34
2022-11-01T15:23:19.463Z,97555.69
2022-11-01T15:28:26.779Z,97555.03
2022-11-01T15:33:32.219Z,97555.84
2022-11-01T15:38:51.089Z,97555.06
2022-11-01T15:43:55.715Z,97550.91
2022-11-01T15:49:05.157Z,97563.59
2022-11-01T15:54:20.870Z,97575.75
2022-11-01T15:59:28.835Z,97584.97
2022-11-01T16:04:40.663Z,97593.50
2022-11-01T16:09:48.372Z,97607.13
2022-11-01T16:14:54.465Z,97621.16
2022-11-01T16:19:58.024Z,97618.56
2022-11-01T16:25:05.513Z,97630.75
2022-11-01T16:30:34.343Z,97641.91
2022-11-01T16:35:38.744Z,97643.97
2022-11-01T16:40:44.064Z,97649.47
2022-11-01T16:45:47.896Z,97648.91
2022-11-01T16:50:53.212Z,97656.19
2022-11-01T16:56:16.788Z,97669.00
2022-11-01T17:01:35.070Z,97668.47
2022-11-01T17:06:39.581Z,97676.44
2022-11-01T17:11:50.714Z,97674.25
2022-11-01T17:16:56.557Z,97694.00
2022-11-01T17:22:02.693Z,97688.19
2022-11-01T17:27:08.865Z,97676.00
2022-11-01T17:32:12.603Z,97690.31
2022-11-01T17:37:17.727Z,97693.84
2022-11-01T17:42:22.296Z,97691.34
2022-11-01T17:47:26.825Z,97692.38
2022-11-01T17:52:30.643Z,97687.22
2022-11-01T17:57:35.439Z,97688.50
2022-11-01T18:02:39.434Z,97690.88
2022-11-01T18:07:45.257Z,97697.97
2022-11-01T18:13:19.603Z,97707.63
2022-11-01T18:18:33.014Z,97707.03
2022-11-01T18:23:38.316Z,97701.94
2022-11-01T18:28:44.288Z,97703.34
2022-11-01T18:33:54.810Z,97706.84
2022-11-01T18:39:07.130Z,97696.69
2022-11-01T18:44:14.520Z,97696.22
2022-11-01T18:49:18.156Z,97704.84
2022-11-01T18:54:25.944Z,97713.19
2022-11-01T18:59:32.718Z,97722.28
2022-11-01T19:04:37.639Z,97710.88
2022-11-01T19:09:43.918Z,97710.66
2022-11-01T19:14:57.559Z,97714.16
2022-11-01T19:20:01.157Z,97710.19
2022-11-01T19:25:20.841Z,97711.66
2022-11-01T19:30:28.509Z,97720.69
2022-11-01T19:35:31.858Z,97707.34
2022-11-01T19:40:36.224Z,97714.88
2022-11-01T19:45:47.000Z,97717.28
2022-11-01T19:50:51.094Z,97727.53
2022-11-01T19:55:56.623Z,97724.00
2022-11-01T20:01:20.981Z,97731.50
2022-11-01T20:06:30.010Z,97731.41
2022-11-01T20:11:34.831Z,97730.41
2022-11-01T20:16:41.897Z,97735.13
2022-11-01T20:21:47.086Z,97743.81
2022-11-01T20:26:50.799Z,97745.25
2022-11-01T20:31:57.091Z,97740.03
2022-11-01T20:37:27.031Z,97735.38
2022-11-01T20:42:28.510Z,97737.88
2022-11-01T20:47:33.912Z,97745.88
2022-11-01T20:52:40.050Z,97747.03
2022-11-01T20:57:43.951Z,97747.38
2022-11-01T21:02:49.508Z,97754.78
2022-11-01T21:07:58.164Z,97752.22
2022-11-01T21:13:04.443Z,97750.81
2022-11-01T21:18:34.304Z,97761.88
2022-11-01T21:23:43.145Z,97759.34
2022-11-01T21:28:49.969Z,97761.19
2022-11-01T21:33:56.802Z,97766.47
2022-11-01T21:39:01.925Z,97766.94
2022-11-01T21:44:24.560Z,97760.00
2022-11-01T21:49:31.223Z,97768.53
2022-11-01T21:54:36.083Z,97756.00
2022-11-01T21:59:40.049Z,97754.41
2022-11-01T22:04:45.947Z,97771.09
2022-11-01T22:09:49.303Z,97757.00
2022-11-01T22:14:52.735Z,97752.06
2022-11-01T22:19:57.452Z,97749.06
2022-11-01T22:25:02.089Z,97744.44
2022-11-01T22:30:06.408Z,97735.72
2022-11-01T22:35:11.402Z,97742.66
2022-11-01T22:40:16.642Z,97751.88
2022-11-01T22:45:20.068Z,97754.59
2022-11-01T22:50:29.493Z,97752.16
2022-11-01T22:55:44.148Z,97760.81
2022-11-01T23:00:47.751Z,97749.00
2022-11-01T23:05:55.327Z,97755.63
2022-11-01T23:10:59.273Z,97748.44
2022-11-01T23:16:04.243Z,97747.31
2022-11-01T23:21:11.228Z,97747.50
2022-11-01T23:26:16.957Z,97755.00
2022-11-01T23:31:21.751Z,97744.53
2022-11-01T23:36:30.330Z,97751.66
2022-11-01T23:41:36.017Z,97750.38
2022-11-01T23:46:39.584Z,97747.53
2022-11-01T23:51:44.465Z,97769.06
2022-11-01T23:56:47.885Z,97758.53
